Time;durP1;ratioP1;P1;durP2;ratioP2;P2;SDS_P1;SDS_P2;PMS_P1;PMS_P2;Temp;Humidity;BMP_temperature;BMP_pressure;BME280_temperature;BME280_humidity;BME280_pressure;Samples;Min_cycle;Max_cycle;Signal;HPM_P1;HPM_P2
2021/05/24 00:00:19;;;;;;;2.70;0.30;;;12.90;64.70;;;;;;5012339;28;20038;-77
2021/05/24 00:02:45;;;;;;;1.87;0.30;;;12.90;64.80;;;;;;5009274;28;20034;-78
2021/05/24 00:05:17;;;;;;;0.90;0.30;;;12.90;64.80;;;;;;5011651;28;20389;-75
2021/05/24 00:07:43;;;;;;;2.35;0.30;;;12.90;65.10;;;;;;5009948;28;20052;-77
2021/05/24 00:10:13;;;;;;;2.60;0.60;;;12.90;65.10;;;;;;5012183;28;20040;-74
2021/05/24 00:12:39;;;;;;;1.03;0.30;;;12.90;65.30;;;;;;5010000;28;20033;-74
2021/05/24 00:15:06;;;;;;;2.60;0.40;;;12.90;65.30;;;;;;5009798;28;20040;-75
2021/05/24 00:17:32;;;;;;;3.00;0.30;;;12.90;65.50;;;;;;5011960;28;20026;-73
2021/05/24 00:19:58;;;;;;;2.10;0.30;;;12.90;65.50;;;;;;5010355;28;20088;-76
2021/05/24 00:22:23;;;;;;;1.43;0.30;;;12.90;65.70;;;;;;5008197;28;20041;-76
2021/05/24 00:24:49;;;;;;;2.13;0.30;;;12.90;65.80;;;;;;5008841;28;20034;-74
2021/05/24 00:27:15;;;;;;;1.30;0.40;;;12.80;65.90;;;;;;5009539;28;20060;-75
2021/05/24 00:29:40;;;;;;;1.63;0.30;;;12.80;66.00;;;;;;4992959;28;20466;-76
2021/05/24 00:32:06;;;;;;;3.40;0.40;;;12.80;66.10;;;;;;5007371;28;20084;-76
2021/05/24 00:34:32;;;;;;;1.80;0.30;;;12.80;66.30;;;;;;4993862;28;20120;-75
2021/05/24 00:36:58;;;;;;;2.37;0.30;;;12.80;66.40;;;;;;4990307;28;20033;-74
2021/05/24 00:39:23;;;;;;;1.50;0.20;;;12.90;66.20;;;;;;4987237;28;20470;-76
2021/05/24 00:41:49;;;;;;;3.63;0.20;;;12.90;65.90;;;;;;5009506;28;20444;-78
2021/05/24 00:44:15;;;;;;;2.20;0.37;;;13.00;65.90;;;;;;4993243;28;20033;-76
2021/05/24 00:46:40;;;;;;;2.90;0.50;;;13.00;66.10;;;;;;5010380;28;20030;-77
2021/05/24 00:49:06;;;;;;;3.37;0.20;;;13.00;66.00;;;;;;4989305;28;20033;-77
2021/05/24 00:51:33;;;;;;;3.57;0.57;;;13.10;65.90;;;;;;5007260;28;20146;-77
2021/05/24 00:54:00;;;;;;;0.90;0.13;;;13.10;65.80;;;;;;5009129;28;20034;-75
2021/05/24 00:56:26;;;;;;;2.67;0.30;;;13.20;65.50;;;;;;5011670;28;20038;-75
2021/05/24 00:58:52;;;;;;;3.40;0.30;;;13.20;65.40;;;;;;5006660;28;20383;-79
2021/05/24 01:01:18;;;;;;;1.97;0.30;;;13.30;65.60;;;;;;5010010;28;20109;-78
2021/05/24 01:03:45;;;;;;;4.57;0.40;;;13.30;65.20;;;;;;5009392;28;20045;-77
2021/05/24 01:06:10;;;;;;;4.80;0.40;;;13.40;65.30;;;;;;5009663;28;20120;-76
2021/05/24 01:08:36;;;;;;;1.50;0.10;;;13.40;65.20;;;;;;4989824;28;20574;-76
2021/05/24 01:11:02;;;;;;;2.30;0.50;;;13.40;65.10;;;;;;4997368;28;20134;-75
2021/05/24 01:13:28;;;;;;;1.50;0.30;;;13.40;65.30;;;;;;5001357;28;20045;-77
2021/05/24 01:15:54;;;;;;;1.70;0.20;;;13.40;65.30;;;;;;4993621;28;20521;-79
2021/05/24 01:18:20;;;;;;;1.10;0.30;;;13.40;65.30;;;;;;5004465;28;20034;-75
2021/05/24 01:20:46;;;;;;;2.83;0.30;;;13.40;65.40;;;;;;4997625;28;20046;-77
2021/05/24 01:23:15;;;;;;;1.03;0.40;;;13.40;65.40;;;;;;5008627;28;20931;-76
2021/05/24 01:25:46;;;;;;;1.27;0.20;;;13.40;65.70;;;;;;5009900;28;20032;-76
2021/05/24 01:28:13;;;;;;;1.93;0.20;;;13.40;65.70;;;;;;5009625;28;20069;-74
2021/05/24 01:30:40;;;;;;;1.23;0.30;;;13.40;65.60;;;;;;5010160;28;20041;-76
2021/05/24 01:33:08;;;;;;;1.47;0.30;;;13.50;65.80;;;;;;4992300;28;20061;-75
2021/05/24 01:35:35;;;;;;;1.73;0.30;;;13.50;65.60;;;;;;5008721;28;20040;-75
2021/05/24 01:38:01;;;;;;;2.77;0.27;;;13.50;65.70;;;;;;5004340;28;20034;-76
2021/05/24 01:40:26;;;;;;;1.50;0.13;;;13.50;65.60;;;;;;4998104;28;20504;-75
2021/05/24 01:42:55;;;;;;;1.17;0.20;;;13.50;66.20;;;;;;4966365;28;20470;-76
2021/05/24 01:45:20;;;;;;;2.47;0.30;;;13.50;65.90;;;;;;5004974;28;20030;-76
2021/05/24 01:47:46;;;;;;;3.07;0.40;;;13.50;65.80;;;;;;5008122;28;20560;-75
2021/05/24 01:50:13;;;;;;;1.20;0.20;;;13.50;66.10;;;;;;5008785;28;20033;-76
2021/05/24 01:52:39;;;;;;;3.47;0.20;;;13.50;65.80;;;;;;5008448;28;20065;-74
2021/05/24 01:55:06;;;;;;;0.80;0.13;;;13.50;66.00;;;;;;4994895;28;20034;-76
2021/05/24 01:57:32;;;;;;;1.80;0.20;;;13.50;65.90;;;;;;5007424;28;20034;-76
2021/05/24 01:59:58;;;;;;;1.50;0.30;;;13.50;66.00;;;;;;4989930;28;20517;-80
2021/05/24 02:02:23;;;;;;;1.60;0.30;;;13.50;65.90;;;;;;4988690;28;20045;-74
2021/05/24 02:04:49;;;;;;;0.93;0.10;;;13.50;65.80;;;;;;4990836;28;20030;-75
2021/05/24 02:07:15;;;;;;;2.00;0.37;;;13.50;66.00;;;;;;5005135;28;20046;-75
2021/05/24 02:09:42;;;;;;;1.40;0.40;;;13.50;66.10;;;;;;4982724;28;20038;-76
2021/05/24 02:12:07;;;;;;;1.57;0.33;;;13.50;66.30;;;;;;4990719;28;20042;-76
2021/05/24 02:14:33;;;;;;;1.43;0.30;;;13.50;66.50;;;;;;5008801;28;20102;-75
2021/05/24 02:16:59;;;;;;;1.40;0.20;;;13.50;65.90;;;;;;5008428;28;20086;-77
2021/05/24 02:19:25;;;;;;;0.93;0.30;;;13.50;66.00;;;;;;4991535;28;20065;-77
2021/05/24 02:21:50;;;;;;;1.47;0.20;;;13.60;66.20;;;;;;4992932;28;20041;-76
2021/05/24 02:24:16;;;;;;;0.73;0.20;;;13.60;65.90;;;;;;5005924;28;20041;-77
2021/05/24 02:26:44;;;;;;;1.63;0.30;;;13.60;66.10;;;;;;5009397;28;20034;-77
2021/05/24 02:29:10;;;;;;;1.83;0.20;;;13.50;66.10;;;;;;5007446;28;20475;-78
2021/05/24 02:31:37;;;;;;;2.90;0.40;;;13.60;65.90;;;;;;5009182;28;20044;-78
2021/05/24 02:34:05;;;;;;;2.50;0.23;;;13.60;66.20;;;;;;5002766;28;20030;-81
2021/05/24 02:36:31;;;;;;;2.37;0.23;;;13.50;65.90;;;;;;5006782;28;20462;-78
2021/05/24 02:38:57;;;;;;;2.70;0.20;;;13.50;66.20;;;;;;4989067;28;20065;-75
2021/05/24 02:41:23;;;;;;;3.10;0.30;;;13.50;66.10;;;;;;4987228;28;20620;-76
2021/05/24 02:43:49;;;;;;;1.90;0.20;;;13.60;66.30;;;;;;5007906;28;20033;-76
2021/05/24 02:46:14;;;;;;;3.30;0.30;;;13.50;66.20;;;;;;5007388;28;20034;-77
2021/05/24 02:48:40;;;;;;;1.43;0.20;;;13.50;66.30;;;;;;4991969;28;20046;-74
2021/05/24 02:51:06;;;;;;;1.73;0.30;;;13.50;66.40;;;;;;4987499;28;20061;-77
2021/05/24 02:53:32;;;;;;;1.07;0.20;;;13.50;66.10;;;;;;5007332;28;20049;-75
2021/05/24 02:55:58;;;;;;;1.17;0.20;;;13.50;66.40;;;;;;5010375;28;20037;-76
2021/05/24 02:58:24;;;;;;;2.13;0.30;;;13.50;66.40;;;;;;5006299;28;20033;-75
2021/05/24 03:00:49;;;;;;;2.30;0.40;;;13.50;66.80;;;;;;5007771;28;20038;-75
2021/05/24 03:03:18;;;;;;;1.00;0.30;;;13.50;66.50;;;;;;4988207;28;20891;-75
2021/05/24 03:05:43;;;;;;;1.47;0.30;;;13.40;66.60;;;;;;4990926;28;20048;-76
2021/05/24 03:08:10;;;;;;;1.73;0.40;;;13.50;66.60;;;;;;5009235;28;20132;-78
2021/05/24 03:10:35;;;;;;;2.23;0.27;;;13.40;66.90;;;;;;5008889;28;20034;-75
2021/05/24 03:13:01;;;;;;;0.93;0.20;;;13.40;66.90;;;;;;5001304;28;20056;-75
2021/05/24 03:15:27;;;;;;;1.27;0.20;;;13.40;66.80;;;;;;4994729;28;20034;-76
2021/05/24 03:17:53;;;;;;;2.27;0.20;;;13.40;67.10;;;;;;5010248;28;20053;-75
2021/05/24 03:20:18;;;;;;;1.27;0.20;;;13.50;66.80;;;;;;5011748;28;20022;-74
2021/05/24 03:22:45;;;;;;;2.80;0.20;;;13.50;66.90;;;;;;4992908;28;20046;-74
2021/05/24 03:25:12;;;;;;;2.77;0.10;;;13.50;66.70;;;;;;4995018;28;20030;-78
2021/05/24 03:27:38;;;;;;;1.40;0.20;;;13.50;66.50;;;;;;5012518;28;20025;-74
2021/05/24 03:30:07;;;;;;;0.90;0.20;;;13.50;66.60;;;;;;5010317;28;20470;-76
2021/05/24 03:32:33;;;;;;;2.10;0.20;;;13.50;66.60;;;;;;5012038;28;20026;-76
2021/05/24 03:34:58;;;;;;;1.30;0.20;;;13.50;66.60;;;;;;5011941;28;20776;-75
2021/05/24 03:37:24;;;;;;;1.57;0.10;;;13.60;66.90;;;;;;5008465;28;20133;-75
2021/05/24 03:39:50;;;;;;;3.50;0.20;;;13.60;66.50;;;;;;5009821;28;20034;-75
2021/05/24 03:42:16;;;;;;;1.43;0.20;;;13.60;66.30;;;;;;5012511;28;20482;-76
2021/05/24 03:44:43;;;;;;;2.10;0.20;;;13.70;66.40;;;;;;4994989;28;20042;-76
2021/05/24 03:47:10;;;;;;;1.07;0.20;;;13.60;66.40;;;;;;5011640;28;20103;-76
2021/05/24 03:49:36;;;;;;;3.50;0.40;;;13.70;66.40;;;;;;5009268;28;20121;-76
2021/05/24 03:52:02;;;;;;;1.43;0.30;;;13.70;66.70;;;;;;5010429;28;20478;-76
2021/05/24 03:54:28;;;;;;;1.13;0.20;;;13.70;66.70;;;;;;5010089;28;20112;-76
2021/05/24 03:56:53;;;;;;;1.20;0.20;;;13.80;66.50;;;;;;4991524;28;20331;-76
2021/05/24 03:59:19;;;;;;;1.47;0.40;;;13.80;66.30;;;;;;5006751;28;20064;-78
2021/05/24 04:01:45;;;;;;;1.50;0.17;;;13.80;66.30;;;;;;5011519;28;20037;-76
2021/05/24 04:04:10;;;;;;;2.47;0.20;;;13.80;66.20;;;;;;4978037;28;20061;-75
2021/05/24 04:06:38;;;;;;;2.13;0.20;;;13.80;66.00;;;;;;5009309;28;20062;-75
2021/05/24 04:09:04;;;;;;;1.27;0.20;;;13.90;66.00;;;;;;4993015;28;20050;-75
2021/05/24 04:11:30;;;;;;;2.08;0.20;;;14.00;65.90;;;;;;5008691;28;20359;-75
2021/05/24 04:13:56;;;;;;;1.23;0.20;;;14.10;65.90;;;;;;5010640;28;20045;-75
2021/05/24 04:16:22;;;;;;;1.65;0.25;;;14.10;65.70;;;;;;5011735;28;20032;-77
2021/05/24 04:18:50;;;;;;;2.70;0.30;;;14.20;65.70;;;;;;5006381;28;20026;-75
2021/05/24 04:21:16;;;;;;;2.15;0.30;;;14.20;65.50;;;;;;4989625;28;20033;-75
2021/05/24 04:23:42;;;;;;;1.70;0.22;;;14.70;64.70;;;;;;5008902;28;20128;-75
2021/05/24 04:26:09;;;;;;;1.90;0.20;;;15.80;61.80;;;;;;4993222;28;20117;-74
2021/05/24 04:28:35;;;;;;;3.88;0.28;;;16.70;60.10;;;;;;5010641;28;20481;-75
2021/05/24 04:31:01;;;;;;;2.72;0.30;;;16.90;58.10;;;;;;5009404;28;20429;-75
2021/05/24 04:33:27;;;;;;;2.35;0.40;;;16.90;57.60;;;;;;5010644;28;20544;-76
2021/05/24 04:35:53;;;;;;;1.90;0.20;;;17.20;57.00;;;;;;5010400;28;20033;-76
2021/05/24 04:38:18;;;;;;;2.63;0.30;;;17.20;56.20;;;;;;5010131;28;20029;-76
2021/05/24 04:40:46;;;;;;;3.83;0.30;;;17.50;55.80;;;;;;4992111;28;20137;-75
2021/05/24 04:43:12;;;;;;;2.25;0.20;;;17.60;54.90;;;;;;5010131;28;20160;-76
2021/05/24 04:45:37;;;;;;;2.65;0.20;;;18.10;54.00;;;;;;5010178;28;20472;-76
2021/05/24 04:48:03;;;;;;;2.05;0.15;;;17.70;53.40;;;;;;5008378;28;20486;-76
2021/05/24 04:50:29;;;;;;;4.30;0.63;;;16.80;56.20;;;;;;5011199;28;20030;-76
2021/05/24 04:52:54;;;;;;;0.55;0.15;;;16.30;57.80;;;;;;4990072;28;20039;-76
2021/05/24 04:55:20;;;;;;;0.77;0.15;;;15.80;59.50;;;;;;5002925;28;20041;-75
2021/05/24 04:57:46;;;;;;;1.23;0.20;;;15.50;60.40;;;;;;5008857;28;20038;-75
2021/05/24 05:00:14;;;;;;;0.88;0.28;;;15.10;61.10;;;;;;5008733;28;20465;-77
2021/05/24 05:02:40;;;;;;;2.80;0.30;;;14.90;61.80;;;;;;5009746;28;20061;-75
2021/05/24 05:05:07;;;;;;;1.13;0.20;;;14.80;62.40;;;;;;5010395;28;20534;-75
2021/05/24 05:07:33;;;;;;;2.53;0.30;;;14.70;62.80;;;;;;5009165;28;20042;-76
2021/05/24 05:09:59;;;;;;;1.15;0.20;;;14.70;63.20;;;;;;5007427;28;20478;-75
2021/05/24 05:12:28;;;;;;;2.47;0.30;;;14.70;63.60;;;;;;5010837;28;20100;-78
2021/05/24 05:14:55;;;;;;;2.30;0.30;;;14.70;63.40;;;;;;5009662;28;20479;-76
2021/05/24 05:17:21;;;;;;;2.17;0.20;;;14.70;63.40;;;;;;4991269;28;20038;-77
2021/05/24 05:19:47;;;;;;;3.78;0.30;;;14.60;63.60;;;;;;4992492;28;20725;-75
2021/05/24 05:22:13;;;;;;;2.45;0.30;;;14.70;63.50;;;;;;4992546;28;20168;-77
2021/05/24 05:24:39;;;;;;;1.15;0.20;;;14.70;63.70;;;;;;4992858;28;20386;-75
2021/05/24 05:27:05;;;;;;;1.38;0.30;;;14.80;63.90;;;;;;5007448;28;20037;-76
2021/05/24 05:29:31;;;;;;;3.20;0.30;;;14.70;63.60;;;;;;5009402;28;20037;-79
2021/05/24 05:31:57;;;;;;;1.85;0.30;;;14.70;63.90;;;;;;5008990;28;20092;-75
2021/05/24 05:34:22;;;;;;;2.13;0.32;;;14.60;64.00;;;;;;4993286;28;20026;-74
2021/05/24 05:36:48;;;;;;;1.92;0.20;;;14.60;64.30;;;;;;5006959;28;20128;-76
2021/05/24 05:39:14;;;;;;;1.67;0.15;;;14.60;64.20;;;;;;4988654;28;20030;-74
2021/05/24 05:41:40;;;;;;;2.58;0.35;;;14.50;64.30;;;;;;5003775;28;20038;-74
2021/05/24 05:44:07;;;;;;;3.53;0.30;;;14.40;64.60;;;;;;4989392;28;20490;-75
2021/05/24 05:46:34;;;;;;;0.82;0.20;;;14.40;64.90;;;;;;4990643;28;20026;-79
2021/05/24 05:48:59;;;;;;;1.35;0.20;;;14.40;65.00;;;;;;5007445;28;20052;-75
2021/05/24 05:51:25;;;;;;;3.20;0.20;;;14.40;65.40;;;;;;5009605;28;20502;-76
2021/05/24 05:53:53;;;;;;;1.63;0.20;;;14.40;65.10;;;;;;5006909;28;20030;-75
2021/05/24 05:56:19;;;;;;;2.97;0.28;;;14.40;64.90;;;;;;5007583;28;20038;-75
2021/05/24 05:58:44;;;;;;;2.50;0.20;;;14.40;65.60;;;;;;5008987;28;20065;-74
2021/05/24 06:01:10;;;;;;;1.23;0.20;;;14.40;64.90;;;;;;4992324;28;20030;-75
2021/05/24 06:03:35;;;;;;;1.15;0.20;;;14.40;65.00;;;;;;5007753;28;20041;-80
2021/05/24 06:06:02;;;;;;;2.22;0.30;;;14.40;65.30;;;;;;4992878;28;20419;-74
2021/05/24 06:08:28;;;;;;;2.80;0.20;;;14.40;65.40;;;;;;5009247;28;20125;-74
2021/05/24 06:10:56;;;;;;;1.58;0.10;;;14.40;65.20;;;;;;5009967;28;20117;-75
2021/05/24 06:13:21;;;;;;;2.00;0.20;;;14.40;65.50;;;;;;4991714;28;20062;-74
2021/05/24 06:15:47;;;;;;;2.17;0.20;;;14.40;65.20;;;;;;5007635;28;20069;-75
2021/05/24 06:18:13;;;;;;;2.97;0.20;;;14.50;65.30;;;;;;5008590;28;20034;-76
2021/05/24 06:20:38;;;;;;;1.45;0.20;;;14.60;65.30;;;;;;5008327;28;20760;-79
2021/05/24 06:23:04;;;;;;;2.58;0.30;;;14.70;64.80;;;;;;5005598;28;20042;-77
2021/05/24 06:25:31;;;;;;;3.20;0.20;;;14.80;63.80;;;;;;5002901;28;20030;-75
2021/05/24 06:27:57;;;;;;;2.60;0.28;;;14.90;63.40;;;;;;5005348;28;20117;-75
2021/05/24 06:30:23;;;;;;;1.05;0.20;;;15.00;62.90;;;;;;5006298;28;20475;-76
2021/05/24 06:32:48;;;;;;;0.88;0.20;;;15.00;62.00;;;;;;4991206;28;20041;-76
2021/05/24 06:35:14;;;;;;;2.85;0.20;;;15.10;62.40;;;;;;5003944;28;20101;-76
2021/05/24 06:37:40;;;;;;;1.52;0.20;;;15.20;61.90;;;;;;5004063;28;20041;-78
2021/05/24 06:40:06;;;;;;;2.72;0.20;;;15.30;61.00;;;;;;4995964;28;20042;-74
2021/05/24 06:42:32;;;;;;;2.10;0.30;;;15.30;61.30;;;;;;5004151;28;20068;-76
2021/05/24 06:44:58;;;;;;;1.92;0.30;;;15.40;61.70;;;;;;5004861;28;20885;-77
2021/05/24 06:47:24;;;;;;;2.88;0.55;;;15.50;60.80;;;;;;5005087;28;20066;-78
2021/05/24 06:49:52;;;;;;;2.22;0.40;;;15.60;60.90;;;;;;4985887;28;20533;-76
2021/05/24 06:52:18;;;;;;;3.65;0.65;;;15.60;60.50;;;;;;4999450;28;20043;-76
2021/05/24 06:54:44;;;;;;;2.22;0.20;;;15.60;60.70;;;;;;4990961;28;20415;-77
2021/05/24 06:57:10;;;;;;;1.70;0.30;;;15.50;60.10;;;;;;5012146;28;20117;-76
2021/05/24 06:59:35;;;;;;;1.65;0.20;;;15.50;60.50;;;;;;5003985;28;20489;-77
2021/05/24 07:02:02;;;;;;;1.75;0.60;;;15.50;60.30;;;;;;4987493;28;20105;-75
2021/05/24 07:04:28;;;;;;;3.13;0.20;;;15.50;60.40;;;;;;4986048;28;20030;-75
2021/05/24 07:06:54;;;;;;;2.80;1.40;;;15.50;60.00;;;;;;5002592;28;20121;-75
2021/05/24 07:09:20;;;;;;;3.55;2.28;;;15.50;59.50;;;;;;5003077;28;20084;-76
2021/05/24 07:11:46;;;;;;;5.65;2.90;;;15.50;60.00;;;;;;5003011;28;20038;-79
2021/05/24 07:14:12;;;;;;;5.70;4.05;;;15.60;60.10;;;;;;4988243;28;20029;-76
2021/05/24 07:16:38;;;;;;;3.35;0.68;;;15.70;60.20;;;;;;5001811;28;20076;-76
2021/05/24 07:19:04;;;;;;;4.50;2.90;;;15.70;59.00;;;;;;5003538;28;20031;-78
2021/05/24 07:21:29;;;;;;;8.13;4.45;;;15.90;59.80;;;;;;5003818;28;20040;-76
2021/05/24 07:23:55;;;;;;;3.63;0.50;;;16.00;59.30;;;;;;5003156;28;20109;-76
2021/05/24 07:26:21;;;;;;;2.50;0.85;;;16.20;58.40;;;;;;5004488;28;20117;-77
2021/05/24 07:28:46;;;;;;;2.47;1.95;;;16.20;58.30;;;;;;5006171;28;20060;-80
2021/05/24 07:31:12;;;;;;;6.35;2.67;;;16.40;58.40;;;;;;5005567;28;20029;-77
2021/05/24 07:33:37;;;;;;;3.47;1.92;;;16.70;57.80;;;;;;5006174;28;20544;-76
2021/05/24 07:36:04;;;;;;;3.33;1.13;;;16.70;56.70;;;;;;5010871;28;20042;-77
2021/05/24 07:38:30;;;;;;;4.32;2.47;;;16.70;56.10;;;;;;5010644;28;20469;-78
2021/05/24 07:40:55;;;;;;;7.40;5.57;;;16.90;56.40;;;;;;5012399;28;20037;-78
2021/05/24 07:43:21;;;;;;;3.33;0.60;;;17.10;56.50;;;;;;5013814;28;20041;-77
2021/05/24 07:45:46;;;;;;;5.40;3.47;;;17.20;54.70;;;;;;5014274;28;20032;-78
2021/05/24 07:48:12;;;;;;;2.75;0.70;;;17.30;56.20;;;;;;4995370;28;20036;-76
2021/05/24 07:50:38;;;;;;;4.18;0.93;;;17.40;54.40;;;;;;4992944;28;20097;-80
2021/05/24 07:53:04;;;;;;;6.28;1.77;;;17.40;53.90;;;;;;4992962;28;20109;-77
2021/05/24 07:55:29;;;;;;;3.05;1.02;;;17.40;54.40;;;;;;5003777;28;20044;-76
2021/05/24 07:57:55;;;;;;;2.05;0.50;;;17.30;54.20;;;;;;5010734;28;20037;-76
2021/05/24 08:00:25;;;;;;;3.67;0.57;;;17.30;54.10;;;;;;5012089;28;20045;-76
2021/05/24 08:02:51;;;;;;;2.67;1.08;;;17.30;53.70;;;;;;5009789;28;20393;-79
2021/05/24 08:05:17;;;;;;;5.40;1.00;;;17.30;53.70;;;;;;5011099;28;20037;-76
2021/05/24 08:07:43;;;;;;;2.50;1.75;;;17.20;54.00;;;;;;5009855;28;20069;-77
2021/05/24 08:10:11;;;;;;;6.80;2.38;;;17.10;54.20;;;;;;5011294;28;20030;-75
2021/05/24 08:12:38;;;;;;;11.55;6.45;;;17.10;54.70;;;;;;5011528;28;20143;-77
2021/05/24 08:15:15;;;;;;;11.25;9.02;;;17.00;55.20;;;;;;4993787;28;20386;-76
2021/05/24 08:17:41;;;;;;;5.38;3.70;;;17.00;55.70;;;;;;5010707;28;20029;-75
2021/05/24 08:20:09;;;;;;;4.90;2.80;;;16.90;55.60;;;;;;5009688;28;20037;-75
2021/05/24 08:22:35;;;;;;;10.23;5.03;;;16.80;55.50;;;;;;5010949;28;20451;-75
2021/05/24 08:25:00;;;;;;;3.05;1.75;;;16.70;56.40;;;;;;4992598;28;20034;-74
2021/05/24 08:27:26;;;;;;;2.30;0.82;;;16.60;56.60;;;;;;5010335;28;20367;-75
2021/05/24 08:29:52;;;;;;;3.55;0.88;;;16.50;56.60;;;;;;4988460;28;20105;-75
2021/05/24 08:32:17;;;;;;;3.13;1.17;;;16.40;56.60;;;;;;4990044;28;20261;-76
2021/05/24 08:34:43;;;;;;;2.28;1.27;;;16.30;56.70;;;;;;4983072;28;20041;-76
2021/05/24 08:37:09;;;;;;;5.05;2.20;;;16.40;57.40;;;;;;5007711;28;20030;-75
2021/05/24 08:39:34;;;;;;;4.75;2.80;;;16.20;56.90;;;;;;5005407;28;20040;-76
2021/05/24 08:42:00;;;;;;;2.88;0.60;;;16.20;57.90;;;;;;4988212;28;20038;-78
2021/05/24 08:44:27;;;;;;;1.00;0.30;;;16.10;57.60;;;;;;5005852;28;20046;-76
2021/05/24 08:46:52;;;;;;;1.75;0.70;;;16.00;58.40;;;;;;5007880;28;20133;-75
2021/05/24 08:49:18;;;;;;;4.05;1.20;;;15.90;58.90;;;;;;5001514;28;20125;-75
2021/05/24 08:51:44;;;;;;;2.55;0.90;;;15.90;59.40;;;;;;4984659;28;20042;-77
2021/05/24 08:54:10;;;;;;;3.22;0.47;;;15.90;59.70;;;;;;5004161;28;20447;-78
2021/05/24 08:56:37;;;;;;;1.33;0.20;;;16.00;60.20;;;;;;5005968;28;20029;-76
2021/05/24 08:59:03;;;;;;;3.65;2.10;;;15.90;60.80;;;;;;4987006;28;20045;-78
2021/05/24 09:01:30;;;;;;;3.67;0.73;;;15.90;61.10;;;;;;5004613;28;20726;-77
2021/05/24 09:04:01;;;;;;;3.17;0.45;;;15.90;61.00;;;;;;5003969;28;20119;-79
2021/05/24 09:06:44;;;;;;;3.60;0.60;;;15.90;60.90;;;;;;5003504;28;20100;-76
2021/05/24 09:09:12;;;;;;;2.53;0.47;;;15.80;61.50;;;;;;4996883;28;20104;-76
2021/05/24 09:11:39;;;;;;;2.72;1.35;;;15.60;61.80;;;;;;5005440;28;20056;-77
2021/05/24 09:14:22;;;;;;;2.67;0.70;;;15.40;62.40;;;;;;5003096;28;20033;-77
2021/05/24 09:16:58;;;;;;;;;;;15.30;62.90;;;;;;4994793;28;20033;-77
2021/05/24 09:19:26;;;;;;;2.03;0.60;;;15.10;63.60;;;;;;5003137;28;19905;-78
2021/05/24 09:21:56;;;;;;;3.95;3.03;;;14.90;63.70;;;;;;5003502;28;20041;-79
2021/05/24 09:24:29;;;;;;;3.70;0.50;;;14.90;64.50;;;;;;5002072;28;20026;-76
2021/05/24 09:27:02;;;;;;;2.90;1.55;;;15.00;64.40;;;;;;5003549;28;20485;-79
2021/05/24 09:29:42;;;;;;;3.05;1.35;;;15.00;65.20;;;;;;5005756;28;20041;-79
2021/05/24 09:32:20;;;;;;;3.00;0.98;;;15.20;65.60;;;;;;5004996;28;20125;-78
2021/05/24 09:34:48;;;;;;;4.68;1.83;;;15.50;65.60;;;;;;5009095;28;20095;-78
2021/05/24 09:37:15;;;;;;;4.00;1.88;;;15.90;65.10;;;;;;5010459;28;20029;-77
2021/05/24 09:39:41;;;;;;;4.55;2.35;;;16.10;64.80;;;;;;5009977;28;20026;-78
2021/05/24 09:42:10;;;;;;;3.00;0.95;;;16.50;64.30;;;;;;5008861;28;20117;-81
2021/05/24 09:44:46;;;;;;;1.65;0.70;;;16.70;64.30;;;;;;5009202;28;20053;-79
2021/05/24 09:47:13;;;;;;;2.67;0.70;;;17.00;62.60;;;;;;5010737;28;20030;-79
2021/05/24 09:49:39;;;;;;;3.30;0.93;;;16.90;63.10;;;;;;5009508;28;20045;-78
2021/05/24 09:52:05;;;;;;;3.67;1.77;;;17.00;63.10;;;;;;5010761;28;20034;-79
2021/05/24 09:54:36;;;;;;;2.67;1.08;;;17.10;62.60;;;;;;4992695;28;20505;-79
2021/05/24 09:57:06;;;;;;;4.65;1.58;;;17.20;62.80;;;;;;4993505;28;20049;-81
2021/05/24 09:59:36;;;;;;;2.38;0.60;;;17.40;63.20;;;;;;5008723;28;20095;-81
2021/05/24 10:02:05;;;;;;;2.55;1.15;;;17.50;63.00;;;;;;5010052;28;20179;-80
2021/05/24 10:04:34;;;;;;;1.60;0.40;;;17.60;63.50;;;;;;5009511;28;20034;-80
2021/05/24 10:07:02;;;;;;;2.63;1.27;;;17.70;62.50;;;;;;5010339;28;20021;-80
2021/05/24 10:09:31;;;;;;;2.63;1.63;;;17.60;62.90;;;;;;4992281;28;20053;-80
2021/05/24 10:11:57;;;;;;;5.68;2.88;;;17.70;63.20;;;;;;4990429;28;20598;-79
2021/05/24 10:14:24;;;;;;;2.67;0.60;;;17.90;63.40;;;;;;5005620;28;20116;-83
2021/05/24 10:16:56;;;;;;;4.78;3.45;;;18.00;62.70;;;;;;5006123;28;20049;-82
2021/05/24 10:19:21;;;;;;;3.45;1.10;;;17.90;63.20;;;;;;5005409;28;20033;-78
2021/05/24 10:21:49;;;;;;;4.85;2.10;;;18.00;64.40;;;;;;5009406;28;20120;-81
2021/05/24 10:24:18;;;;;;;6.57;1.23;;;17.90;64.10;;;;;;5007790;28;20037;-80
2021/05/24 10:26:45;;;;;;;4.57;1.25;;;17.80;64.90;;;;;;5009560;28;20549;-83
2021/05/24 10:29:11;;;;;;;5.40;1.60;;;17.70;65.10;;;;;;4991560;28;20062;-83
2021/05/24 10:31:47;;;;;;;1.70;0.77;;;17.70;65.90;;;;;;5011106;28;20034;-78
2021/05/24 10:34:25;;;;;;;5.07;2.80;;;17.80;65.40;;;;;;4979767;28;20034;-79
2021/05/24 10:37:14;;;;;;;4.50;2.17;;;17.80;65.60;;;;;;5012445;28;20037;-81
2021/05/24 10:40:02;;;;;;;1.92;1.00;;;17.90;66.00;;;;;;4992864;28;20026;-82
2021/05/24 10:42:46;;;;;;;2.05;1.10;;;17.90;66.50;;;;;;5008352;28;20176;-82
2021/05/24 10:45:20;;;;;;;3.35;1.70;;;17.80;66.30;;;;;;5008530;28;20041;-83
2021/05/24 10:47:59;;;;;;;3.80;2.33;;;17.60;66.40;;;;;;4999148;28;20424;-81
2021/05/24 10:50:28;;;;;;;6.30;2.92;;;17.30;67.00;;;;;;5009792;28;20049;-83
2021/05/24 10:53:00;;;;;;;4.97;3.10;;;17.20;67.60;;;;;;5002982;28;20037;-82
2021/05/24 10:55:25;;;;;;;6.20;2.78;;;17.10;67.70;;;;;;5003135;28;20497;-82
2021/05/24 10:57:58;;;;;;;5.55;3.67;;;17.10;68.40;;;;;;5003314;28;20042;-83
2021/05/24 11:00:25;;;;;;;2.90;1.77;;;17.20;68.80;;;;;;5029608;28;20112;-83
2021/05/24 11:02:53;;;;;;;2.60;0.93;;;17.30;67.80;;;;;;4997832;28;20034;-84
2021/05/24 11:05:21;;;;;;;3.08;1.13;;;17.10;68.00;;;;;;5006688;28;20037;-81
2021/05/24 11:07:49;;;;;;;1.75;0.50;;;17.10;69.10;;;;;;5000140;28;20046;-82
2021/05/24 11:10:15;;;;;;;3.83;1.63;;;17.00;69.50;;;;;;5004310;28;20544;-81
2021/05/24 11:12:52;;;;;;;8.65;6.15;;;16.90;69.70;;;;;;4998621;28;20030;-82
2021/05/24 11:15:32;;;;;;;4.50;1.85;;;16.90;69.90;;;;;;4999367;28;20022;-83
2021/05/24 11:18:01;;;;;;;7.28;6.13;;;16.90;70.40;;;;;;5001437;28;20113;-82
2021/05/24 11:20:49;;;;;;;3.75;2.10;;;16.90;70.30;;;;;;5008736;28;20025;-83
2021/05/24 11:26:33;;;;;;;9.65;5.45;;;16.90;70.50;;;;;;5009490;28;20033;-84
2021/05/24 11:29:17;;;;;;;5.80;4.03;;;17.10;70.90;;;;;;5008381;28;20033;-82
2021/05/24 11:31:49;;;;;;;1.52;0.60;;;17.30;70.90;;;;;;5003616;28;20044;-84
2021/05/24 11:34:32;;;;;;;0.80;0.30;;;17.20;69.30;;;;;;5013541;28;20033;-79
2021/05/24 11:37:03;;;;;;;7.93;6.18;;;16.80;69.30;;;;;;4996845;28;20026;-81
2021/05/24 11:39:56;;;;;;;7.65;6.03;;;16.50;71.20;;;;;;5011092;28;20359;-80
2021/05/24 11:42:31;;;;;;;4.88;4.35;;;16.50;71.50;;;;;;5008531;28;20399;-81
2021/05/24 11:45:02;;;;;;;11.82;9.13;;;16.70;71.70;;;;;;5011635;28;20045;-80
2021/05/24 11:47:28;;;;;;;3.20;1.73;;;16.90;71.50;;;;;;5018092;28;20115;-81
2021/05/24 11:50:01;;;;;;;6.03;3.85;;;17.20;70.60;;;;;;5011841;28;20147;-80
2021/05/24 11:52:29;;;;;;;7.45;4.25;;;17.10;70.70;;;;;;5011413;28;20040;-81
2021/05/24 11:54:55;;;;;;;2.60;2.28;;;17.20;71.50;;;;;;5009394;28;20029;-81
2021/05/24 11:57:23;;;;;;;5.05;4.18;;;17.40;70.70;;;;;;4985530;28;20034;-86
2021/05/24 11:59:50;;;;;;;2.22;1.17;;;17.40;69.50;;;;;;4993216;28;20037;-82
2021/05/24 12:02:16;;;;;;;2.25;1.42;;;17.50;68.70;;;;;;4993305;28;20071;-82
2021/05/24 12:04:45;;;;;;;1.65;0.55;;;17.50;68.10;;;;;;5010290;28;20030;-83
2021/05/24 12:07:22;;;;;;;1.48;0.40;;;17.70;68.20;;;;;;5007372;28;20081;-83
2021/05/24 12:09:50;;;;;;;0.43;0.20;;;17.90;67.50;;;;;;4990612;28;20052;-83
2021/05/24 12:12:21;;;;;;;3.05;2.10;;;17.90;65.40;;;;;;5011699;28;20030;-82
2021/05/24 12:14:51;;;;;;;0.73;0.20;;;17.90;67.30;;;;;;5009512;28;20192;-81
2021/05/24 12:17:19;;;;;;;4.65;3.88;;;18.10;66.00;;;;;;4994687;28;20038;-81
2021/05/24 12:19:48;;;;;;;1.55;0.70;;;18.00;65.10;;;;;;5009291;28;20057;-81
2021/05/24 12:22:15;;;;;;;2.08;0.93;;;18.00;65.50;;;;;;5014529;28;20431;-80
2021/05/24 12:24:46;;;;;;;3.80;3.00;;;18.00;64.70;;;;;;5014854;28;20105;-81
2021/05/24 12:27:14;;;;;;;0.52;0.20;;;17.70;66.60;;;;;;4999098;28;20022;-79
2021/05/24 12:30:15;;;;;;;2.45;2.05;;;17.50;64.50;;;;;;5017081;28;20160;-80
2021/05/24 12:32:43;;;;;;;1.58;0.30;;;16.90;66.90;;;;;;5015913;28;20144;-79
2021/05/24 12:35:11;;;;;;;5.75;4.85;;;16.50;67.90;;;;;;5014966;28;20034;-77
2021/05/24 12:37:39;;;;;;;1.58;0.88;;;16.20;69.70;;;;;;4985719;28;20023;-81
2021/05/24 12:40:10;;;;;;;2.70;1.27;;;16.00;70.50;;;;;;5004777;28;20034;-84
2021/05/24 12:42:41;;;;;;;11.55;9.05;;;15.70;72.20;;;;;;5008548;28;20061;-91
2021/05/24 12:45:09;;;;;;;7.28;5.85;;;15.50;74.40;;;;;;5008974;28;20034;-85
2021/05/24 12:47:35;;;;;;;11.00;8.38;;;15.40;75.20;;;;;;5011354;28;20026;-85
2021/05/24 12:50:11;;;;;;;7.78;4.95;;;15.40;75.60;;;;;;5014125;28;20033;-83
2021/05/24 12:52:37;;;;;;;8.15;6.82;;;15.40;75.70;;;;;;5001463;28;20036;-86